createdAt,value
2018-05-29T00:04:22.048Z,11.23
2018-05-29T00:09:24.536Z,11.23
2018-05-29T00:14:27.020Z,11.40
2018-05-29T00:19:29.531Z,11.60
2018-05-29T00:24:32.024Z,12.00
2018-05-29T00:29:34.503Z,11.60
2018-05-29T00:34:36.993Z,11.30
2018-05-29T00:39:39.488Z,12.77
2018-05-29T00:44:41.992Z,11.63
2018-05-29T00:49:44.493Z,12.10
2018-05-29T00:54:58.811Z,13.27
2018-05-29T01:00:01.297Z,12.77
2018-05-29T01:05:03.780Z,12.40
2018-05-29T01:10:06.288Z,12.40
2018-05-29T01:15:08.784Z,12.47
2018-05-29T01:20:12.047Z,12.57
2018-05-29T01:25:14.556Z,12.30
2018-05-29T01:30:17.055Z,13.40
2018-05-29T01:35:19.561Z,13.60
2018-05-29T01:40:22.044Z,13.33
2018-05-29T01:45:24.610Z,12.80
2018-05-29T01:50:27.859Z,13.40
2018-05-29T01:55:30.359Z,13.10
2018-05-29T02:00:32.877Z,12.30
2018-05-29T02:05:36.136Z,13.03
2018-05-29T02:10:38.640Z,13.43
2018-05-29T02:15:41.153Z,13.80
2018-05-29T02:20:43.641Z,13.70
2018-05-29T02:25:46.145Z,12.70
2018-05-29T02:30:48.641Z,13.63
2018-05-29T02:35:51.905Z,11.97
2018-05-29T02:40:54.392Z,12.60
2018-05-29T02:45:56.899Z,13.60
2018-05-29T02:50:59.387Z,13.17
2018-05-29T02:56:01.915Z,13.90
2018-05-29T03:01:04.418Z,14.43
2018-05-29T03:06:07.848Z,13.70
2018-05-29T03:11:10.352Z,13.50
2018-05-29T03:16:12.861Z,14.77
2018-05-29T03:21:15.376Z,14.17
2018-05-29T03:26:17.891Z,15.13
2018-05-29T03:31:20.400Z,13.97
2018-05-29T03:36:23.717Z,14.17
2018-05-29T03:41:26.972Z,15.43
2018-05-29T03:46:29.476Z,13.90
2018-05-29T03:51:31.992Z,14.60
2018-05-29T03:56:34.480Z,14.50
2018-05-29T04:01:36.968Z,14.63
2018-05-29T04:06:39.468Z,15.53
2018-05-29T04:11:41.960Z,14.43
2018-05-29T04:16:44.465Z,15.00
2018-05-29T04:21:47.796Z,13.77
2018-05-29T04:26:50.484Z,16.30
2018-05-29T04:31:53.748Z,16.90
2018-05-29T04:36:56.252Z,16.50
2018-05-29T04:41:58.760Z,16.37
2018-05-29T04:47:01.308Z,14.33
2018-05-29T04:52:03.788Z,13.73
2018-05-29T04:57:06.295Z,15.07
2018-05-29T05:02:08.795Z,13.97
2018-05-29T05:07:11.298Z,14.40
2018-05-29T05:12:13.795Z,14.20
2018-05-29T05:17:16.304Z,15.10
2018-05-29T05:22:18.824Z,15.10
2018-05-29T05:27:21.325Z,13.60
2018-05-29T05:32:24.598Z,15.50
2018-05-29T05:37:27.080Z,14.70
2018-05-29T05:42:29.589Z,16.03
2018-05-29T05:47:32.090Z,16.00
2018-05-29T05:52:34.601Z,15.53
2018-05-29T05:57:37.873Z,15.43
2018-05-29T06:02:40.393Z,16.10
2018-05-29T06:07:42.888Z,14.90
2018-05-29T06:12:45.371Z,13.73
2018-05-29T06:17:47.882Z,13.67
2018-05-29T06:22:51.173Z,15.70
2018-05-29T06:27:53.687Z,14.37
2018-05-29T06:32:56.948Z,15.73
2018-05-29T06:37:59.465Z,15.43
2018-05-29T06:43:01.956Z,15.00
2018-05-29T06:48:04.457Z,14.20
2018-05-29T06:53:06.948Z,13.20
2018-05-29T06:58:09.452Z,12.70
2018-05-29T07:03:11.954Z,13.87
2018-05-29T07:08:15.216Z,14.07
2018-05-29T07:13:17.741Z,13.23
2018-05-29T07:18:20.248Z,13.80
2018-05-29T07:23:23.527Z,13.60
2018-05-29T07:28:26.032Z,14.87
2018-05-29T07:33:28.540Z,15.60
2018-05-29T07:38:31.032Z,14.00
2018-05-29T07:43:33.615Z,13.60
2018-05-29T07:48:36.112Z,14.00
2018-05-29T07:53:38.661Z,12.73
2018-05-29T07:58:41.885Z,12.87
2018-05-29T08:03:44.391Z,12.40
2018-05-29T08:08:46.896Z,15.27
2018-05-29T08:13:49.393Z,14.30
2018-05-29T08:18:51.872Z,16.40
2018-05-29T08:23:54.400Z,15.00
2018-05-29T08:28:56.902Z,13.90
2018-05-29T08:34:00.170Z,15.43
2018-05-29T08:39:02.669Z,13.97
2018-05-29T08:44:05.177Z,14.73
2018-05-29T08:49:08.444Z,14.67
2018-05-29T08:54:10.968Z,15.23
2018-05-29T08:59:13.468Z,14.20
2018-05-29T09:04:16.025Z,13.83
2018-05-29T09:09:18.473Z,14.43
2018-05-29T09:14:21.765Z,13.30
2018-05-29T09:19:24.253Z,13.40
2018-05-29T09:24:26.744Z,13.73
2018-05-29T09:29:30.037Z,12.23
2018-05-29T09:34:32.535Z,13.83
2018-05-29T09:39:35.036Z,14.67
2018-05-29T09:44:37.542Z,13.73
2018-05-29T09:49:40.065Z,15.80
2018-05-29T09:54:42.555Z,15.43
2018-05-29T09:59:45.060Z,15.67
2018-05-29T10:04:47.578Z,15.47
2018-05-29T10:09:50.071Z,13.10
2018-05-29T10:14:52.568Z,15.20
2018-05-29T10:19:55.076Z,14.77
2018-05-29T10:24:57.581Z,14.87
2018-05-29T10:30:00.096Z,15.23
2018-05-29T10:35:03.363Z,12.10
2018-05-29T10:40:05.873Z,14.53
2018-05-29T10:45:08.373Z,13.30
2018-05-29T10:50:10.871Z,12.60
2018-05-29T10:55:13.379Z,13.37
2018-05-29T11:00:16.648Z,14.30
2018-05-29T11:05:19.227Z,13.50
2018-05-29T11:10:21.742Z,12.20
2018-05-29T11:15:24.276Z,12.60
2018-05-29T11:20:27.540Z,12.13
2018-05-29T11:25:30.032Z,14.23
2018-05-29T11:30:32.536Z,12.33
2018-05-29T11:35:35.037Z,12.90
2018-05-29T11:40:37.550Z,14.40
2018-05-29T11:45:40.841Z,12.17
2018-05-29T11:50:43.344Z,12.40
2018-05-29T11:55:45.863Z,12.87
2018-05-29T12:00:48.596Z,13.40
2018-05-29T12:05:51.092Z,13.03
2018-05-29T12:10:53.616Z,11.10
2018-05-29T12:15:56.128Z,13.00
2018-05-29T12:20:59.395Z,12.43
2018-05-29T12:26:01.898Z,12.90
2018-05-29T12:31:04.396Z,12.00
2018-05-29T12:36:06.997Z,12.20
2018-05-29T12:41:09.520Z,13.00
2018-05-29T12:46:12.868Z,12.30
2018-05-29T12:51:15.473Z,12.73
2018-05-29T12:56:17.992Z,13.07
2018-05-29T13:01:20.483Z,12.50
2018-05-29T13:06:22.993Z,12.53
2018-05-29T13:11:26.252Z,13.17
2018-05-29T13:16:29.509Z,12.40
2018-05-29T13:21:31.990Z,11.70
2018-05-29T13:26:34.487Z,13.07
2018-05-29T13:31:36.992Z,12.17
2018-05-29T13:36:39.496Z,12.57
2018-05-29T13:41:42.772Z,12.03
2018-05-29T13:46:45.269Z,11.20
2018-05-29T13:51:47.771Z,11.60
2018-05-29T13:56:50.252Z,11.40
2018-05-29T14:01:52.764Z,11.07
2018-05-29T14:06:55.271Z,10.73
2018-05-29T14:11:58.521Z,12.40
2018-05-29T14:17:01.021Z,12.13
2018-05-29T14:22:03.525Z,11.10
2018-05-29T14:27:06.012Z,12.53
2018-05-29T14:32:08.512Z,10.93
2018-05-29T14:37:11.018Z,11.43
2018-05-29T14:42:13.535Z,12.57
2018-05-29T14:47:16.804Z,10.83
2018-05-29T14:52:19.327Z,11.17
2018-05-29T14:57:21.802Z,12.00
2018-05-29T15:02:24.310Z,12.17
2018-05-29T15:07:26.813Z,11.37
2018-05-29T15:12:29.343Z,12.10
2018-05-29T15:17:31.852Z,11.27
2018-05-29T15:22:34.352Z,11.73
2018-05-29T15:27:36.856Z,12.00
2018-05-29T15:32:39.367Z,13.37
2018-05-29T15:37:41.874Z,12.80
2018-05-29T15:42:45.128Z,11.97
2018-05-29T15:47:47.629Z,10.80
2018-05-29T15:52:50.911Z,11.00
2018-05-29T15:57:53.424Z,9.70
2018-05-29T16:02:55.940Z,10.30
2018-05-29T16:07:58.452Z,9.80
2018-05-29T16:13:00.951Z,9.90
2018-05-29T16:18:03.448Z,8.80
2018-05-29T16:23:06.738Z,7.70
2018-05-29T16:28:09.232Z,6.53
2018-05-29T16:33:11.723Z,5.93
2018-05-29T16:38:14.207Z,6.40
2018-05-29T16:43:16.838Z,6.23
2018-05-29T16:48:19.380Z,5.87
2018-05-29T16:53:21.871Z,6.10
2018-05-29T16:58:24.373Z,6.80
2018-05-29T17:03:26.867Z,6.93
2018-05-29T17:08:29.364Z,7.17
2018-05-29T17:13:31.868Z,6.93
2018-05-29T17:18:34.361Z,6.70
2018-05-29T17:23:38.372Z,5.97
2018-05-29T17:28:40.905Z,6.80
2018-05-29T17:33:43.432Z,7.70
2018-05-29T17:38:45.907Z,6.50
2018-05-29T17:43:49.165Z,8.10
2018-05-29T17:48:51.641Z,8.20
2018-05-29T17:53:54.190Z,9.40
2018-05-29T17:58:56.710Z,7.80
2018-05-29T18:03:59.318Z,8.83
2018-05-29T18:09:01.915Z,9.10
2018-05-29T18:14:05.051Z,8.67
2018-05-29T18:19:07.794Z,7.87
2018-05-29T18:24:11.052Z,9.57
2018-05-29T18:29:13.564Z,9.90
2018-05-29T18:34:16.057Z,8.83
2018-05-29T18:39:18.656Z,9.17
2018-05-29T18:44:21.252Z,9.50
2018-05-29T18:49:23.748Z,9.03
2018-05-29T18:54:26.240Z,9.23
2018-05-29T18:59:28.739Z,10.43
2018-05-29T19:04:31.232Z,9.30
2018-05-29T19:09:33.757Z,9.37
2018-05-29T19:14:36.424Z,9.50
2018-05-29T19:19:39.703Z,9.30
2018-05-29T19:24:42.205Z,10.33
2018-05-29T19:29:44.751Z,9.27
2018-05-29T19:34:48.016Z,9.57
2018-05-29T19:39:50.517Z,9.40
2018-05-29T19:44:53.050Z,9.33
2018-05-29T19:49:55.546Z,10.00
2018-05-29T19:54:58.036Z,8.80
2018-05-29T20:00:00.539Z,9.07
2018-05-29T20:05:03.033Z,9.17
2018-05-29T20:10:05.542Z,8.67
2018-05-29T20:15:08.045Z,10.20
2018-05-29T20:20:10.536Z,9.40
2018-05-29T20:25:13.028Z,8.93
2018-05-29T20:30:15.529Z,8.37
2018-05-29T20:35:18.018Z,9.47
2018-05-29T20:40:20.521Z,8.97
2018-05-29T20:45:23.003Z,9.10
2018-05-29T20:50:25.496Z,9.30
2018-05-29T20:55:28.008Z,9.40
2018-05-29T21:00:30.493Z,8.60
2018-05-29T21:05:32.991Z,9.03
2018-05-29T21:10:35.534Z,7.60
2018-05-29T21:15:38.836Z,8.73
2018-05-29T21:20:42.095Z,9.20
2018-05-29T21:25:45.248Z,8.30
2018-05-29T21:30:48.510Z,9.07
2018-05-29T21:35:51.007Z,10.03
2018-05-29T21:40:53.571Z,9.10
2018-05-29T21:45:56.059Z,8.30
2018-05-29T21:50:58.560Z,10.50
2018-05-29T21:56:01.059Z,9.67
2018-05-29T22:01:03.556Z,9.60
2018-05-29T22:06:06.039Z,9.00
2018-05-29T22:11:08.548Z,10.20
2018-05-29T22:16:11.061Z,9.33
2018-05-29T22:21:13.549Z,9.60
2018-05-29T22:26:16.064Z,8.50
2018-05-29T22:31:18.557Z,8.80
2018-05-29T22:36:21.061Z,9.10
2018-05-29T22:41:23.578Z,9.87
2018-05-29T22:46:26.824Z,9.20
2018-05-29T22:51:29.354Z,9.17
2018-05-29T22:56:31.840Z,8.67
2018-05-29T23:01:34.356Z,8.83
2018-05-29T23:06:37.624Z,8.20
2018-05-29T23:11:40.116Z,8.57
2018-05-29T23:16:42.644Z,7.77
2018-05-29T23:21:45.127Z,8.50
2018-05-29T23:26:47.624Z,8.40
2018-05-29T23:31:50.119Z,8.97
2018-05-29T23:36:52.604Z,8.43
2018-05-29T23:41:55.113Z,7.97
2018-05-29T23:46:58.378Z,8.43
2018-05-29T23:52:00.872Z,8.90
2018-05-29T23:57:03.383Z,8.73
